sensor_id;sensor_type;location;lat;lon;timestamp;pressure;altitude;pressure_sealevel;temperature;humidity
84967;BME280;75275;51.348;12.358;2024-01-27T00:00:50;101792.25;;;6.25;64.62
84967;BME280;75275;51.348;12.358;2024-01-27T00:03:17;101799.16;;;6.15;65.55
84967;BME280;75275;51.348;12.358;2024-01-27T00:05:44;101802.31;;;6.18;65.84
84967;BME280;75275;51.348;12.358;2024-01-27T00:08:11;101798.31;;;6.27;65.89
84967;BME280;75275;51.348;12.358;2024-01-27T00:10:38;101801.88;;;6.28;64.70
84967;BME280;75275;51.348;12.358;2024-01-27T00:13:04;101810.69;;;6.30;65.14
84967;BME280;75275;51.348;12.358;2024-01-27T00:15:31;101815.31;;;6.30;64.63
84967;BME280;75275;51.348;12.358;2024-01-27T00:18:00;101821.16;;;6.33;64.93
84967;BME280;75275;51.348;12.358;2024-01-27T00:20:27;101823.91;;;6.40;64.96
84967;BME280;75275;51.348;12.358;2024-01-27T00:22:57;101817.81;;;6.38;64.41
84967;BME280;75275;51.348;12.358;2024-01-27T00:25:24;101816.97;;;6.37;64.49
84967;BME280;75275;51.348;12.358;2024-01-27T00:27:50;101826.63;;;6.40;64.64
84967;BME280;75275;51.348;12.358;2024-01-27T00:30:18;101818.03;;;6.36;64.67
84967;BME280;75275;51.348;12.358;2024-01-27T00:32:44;101832.47;;;6.37;64.91
84967;BME280;75275;51.348;12.358;2024-01-27T00:35:13;101833.09;;;6.39;65.32
84967;BME280;75275;51.348;12.358;2024-01-27T00:37:40;101830.81;;;6.36;64.50
84967;BME280;75275;51.348;12.358;2024-01-27T00:40:07;101829.75;;;6.30;64.31
84967;BME280;75275;51.348;12.358;2024-01-27T00:42:34;101839.38;;;6.26;64.83
84967;BME280;75275;51.348;12.358;2024-01-27T00:45:02;101836.44;;;6.27;64.52
84967;BME280;75275;51.348;12.358;2024-01-27T00:47:28;101846.72;;;6.25;64.32
84967;BME280;75275;51.348;12.358;2024-01-27T00:49:55;101844.41;;;6.22;64.31
84967;BME280;75275;51.348;12.358;2024-01-27T00:52:24;101845.44;;;6.15;63.89
84967;BME280;75275;51.348;12.358;2024-01-27T00:54:51;101829.75;;;6.10;64.03
84967;BME280;75275;51.348;12.358;2024-01-27T00:57:18;101842.47;;;6.10;63.84
84967;BME280;75275;51.348;12.358;2024-01-27T00:59:44;101839.56;;;6.11;63.81
84967;BME280;75275;51.348;12.358;2024-01-27T01:02:11;101841.66;;;6.09;63.42
84967;BME280;75275;51.348;12.358;2024-01-27T01:04:38;101841.44;;;6.04;62.77
84967;BME280;75275;51.348;12.358;2024-01-27T01:07:06;101844.16;;;6.04;62.76
84967;BME280;75275;51.348;12.358;2024-01-27T01:09:35;101849.78;;;6.02;63.16
84967;BME280;75275;51.348;12.358;2024-01-27T01:12:02;101865.53;;;6.07;62.59
84967;BME280;75275;51.348;12.358;2024-01-27T01:14:29;101865.13;;;6.10;62.66
84967;BME280;75275;51.348;12.358;2024-01-27T01:16:56;101867.84;;;6.10;62.45
84967;BME280;75275;51.348;12.358;2024-01-27T01:19:23;101874.72;;;6.06;62.29
84967;BME280;75275;51.348;12.358;2024-01-27T01:21:51;101874.28;;;6.02;62.56
84967;BME280;75275;51.348;12.358;2024-01-27T01:24:22;101868.63;;;5.97;62.81
84967;BME280;75275;51.348;12.358;2024-01-27T01:26:50;101884.75;;;5.99;62.20
84967;BME280;75275;51.348;12.358;2024-01-27T01:31:59;101888.53;;;5.98;61.88
84967;BME280;75275;51.348;12.358;2024-01-27T01:34:28;101893.78;;;5.99;62.29
84967;BME280;75275;51.348;12.358;2024-01-27T01:36:55;101889.16;;;6.00;61.94
84967;BME280;75275;51.348;12.358;2024-01-27T01:39:22;101884.75;;;5.99;62.00
84967;BME280;75275;51.348;12.358;2024-01-27T01:41:51;101882.66;;;6.01;61.84
84967;BME280;75275;51.348;12.358;2024-01-27T01:44:18;101879.09;;;5.94;62.03
84967;BME280;75275;51.348;12.358;2024-01-27T01:46:45;101866.47;;;5.86;61.24
84967;BME280;75275;51.348;12.358;2024-01-27T01:49:12;101857.44;;;5.72;61.61
84967;BME280;75275;51.348;12.358;2024-01-27T01:51:39;101869.94;;;5.60;61.97
84967;BME280;75275;51.348;12.358;2024-01-27T01:54:06;101876.59;;;5.51;62.72
84967;BME280;75275;51.348;12.358;2024-01-27T01:56:34;101872.84;;;5.52;62.57
84967;BME280;75275;51.348;12.358;2024-01-27T01:59:03;101874.13;;;5.56;62.44
84967;BME280;75275;51.348;12.358;2024-01-27T02:01:30;101876.63;;;5.58;61.47
84967;BME280;75275;51.348;12.358;2024-01-27T02:03:57;101874.56;;;5.60;61.82
84967;BME280;75275;51.348;12.358;2024-01-27T02:06:24;101874.13;;;5.56;61.19
84967;BME280;75275;51.348;12.358;2024-01-27T02:08:51;101878.47;;;5.50;61.75
84967;BME280;75275;51.348;12.358;2024-01-27T02:11:17;101886.59;;;5.44;61.50
84967;BME280;75275;51.348;12.358;2024-01-27T02:13:44;101883.63;;;5.39;62.20
84967;BME280;75275;51.348;12.358;2024-01-27T02:16:13;101883.19;;;5.35;62.18
84967;BME280;75275;51.348;12.358;2024-01-27T02:18:39;101886.09;;;5.34;61.83
84967;BME280;75275;51.348;12.358;2024-01-27T02:21:06;101896.13;;;5.33;61.88
84967;BME280;75275;51.348;12.358;2024-01-27T02:23:33;101889.00;;;5.25;62.04
84967;BME280;75275;51.348;12.358;2024-01-27T02:26:01;101893.38;;;5.20;62.26
84967;BME280;75275;51.348;12.358;2024-01-27T02:28:28;101894.59;;;5.17;62.41
84967;BME280;75275;51.348;12.358;2024-01-27T02:30:57;101899.38;;;5.15;62.22
84967;BME280;75275;51.348;12.358;2024-01-27T02:33:28;101897.47;;;5.09;62.10
84967;BME280;75275;51.348;12.358;2024-01-27T02:35:55;101903.03;;;5.01;62.62
84967;BME280;75275;51.348;12.358;2024-01-27T02:38:22;101903.84;;;4.95;63.02
84967;BME280;75275;51.348;12.358;2024-01-27T02:40:49;101903.00;;;4.94;62.69
84967;BME280;75275;51.348;12.358;2024-01-27T02:43:17;101912.38;;;4.92;62.41
84967;BME280;75275;51.348;12.358;2024-01-27T02:45:49;101914.44;;;4.90;62.83
84967;BME280;75275;51.348;12.358;2024-01-27T02:48:16;101904.63;;;4.89;63.23
84967;BME280;75275;51.348;12.358;2024-01-27T02:50:45;101908.38;;;4.88;62.86
84967;BME280;75275;51.348;12.358;2024-01-27T02:53:12;101906.13;;;4.91;62.72
84967;BME280;75275;51.348;12.358;2024-01-27T02:55:39;101906.28;;;4.90;62.59
84967;BME280;75275;51.348;12.358;2024-01-27T02:58:05;101908.84;;;4.91;62.40
84967;BME280;75275;51.348;12.358;2024-01-27T03:00:34;101914.72;;;4.95;62.83
84967;BME280;75275;51.348;12.358;2024-01-27T03:03:01;101919.75;;;4.98;62.52
84967;BME280;75275;51.348;12.358;2024-01-27T03:05:28;101922.72;;;5.03;62.45
84967;BME280;75275;51.348;12.358;2024-01-27T03:07:57;101929.44;;;5.07;62.38
84967;BME280;75275;51.348;12.358;2024-01-27T03:10:24;101930.72;;;5.11;62.06
84967;BME280;75275;51.348;12.358;2024-01-27T03:12:51;101931.75;;;5.10;62.18
84967;BME280;75275;51.348;12.358;2024-01-27T03:15:18;101938.84;;;5.11;62.00
84967;BME280;75275;51.348;12.358;2024-01-27T03:17:48;101938.69;;;5.13;61.99
84967;BME280;75275;51.348;12.358;2024-01-27T03:20:15;101939.50;;;5.13;62.01
84967;BME280;75275;51.348;12.358;2024-01-27T03:22:42;101943.91;;;5.14;62.02
84967;BME280;75275;51.348;12.358;2024-01-27T03:25:15;101952.00;;;5.07;61.95
84967;BME280;75275;51.348;12.358;2024-01-27T03:27:44;101946.13;;;5.04;62.12
84967;BME280;75275;51.348;12.358;2024-01-27T03:30:11;101945.09;;;5.05;62.12
84967;BME280;75275;51.348;12.358;2024-01-27T03:32:38;101958.25;;;5.01;62.16
84967;BME280;75275;51.348;12.358;2024-01-27T03:35:08;101958.19;;;4.95;62.48
84967;BME280;75275;51.348;12.358;2024-01-27T03:37:34;101944.91;;;4.85;62.30
84967;BME280;75275;51.348;12.358;2024-01-27T03:40:01;101952.38;;;4.76;63.10
84967;BME280;75275;51.348;12.358;2024-01-27T03:42:28;101955.22;;;4.68;63.32
84967;BME280;75275;51.348;12.358;2024-01-27T03:44:55;101965.44;;;4.66;63.37
84967;BME280;75275;51.348;12.358;2024-01-27T03:47:22;101965.00;;;4.63;63.36
84967;BME280;75275;51.348;12.358;2024-01-27T03:49:49;101969.88;;;4.52;63.94
84967;BME280;75275;51.348;12.358;2024-01-27T03:52:32;101966.94;;;4.47;64.20
84967;BME280;75275;51.348;12.358;2024-01-27T03:54:59;101973.56;;;4.45;64.37
84967;BME280;75275;51.348;12.358;2024-01-27T03:57:25;101967.09;;;4.46;64.81
84967;BME280;75275;51.348;12.358;2024-01-27T03:59:52;101970.19;;;4.43;64.12
84967;BME280;75275;51.348;12.358;2024-01-27T04:02:21;101965.81;;;4.42;64.55
84967;BME280;75275;51.348;12.358;2024-01-27T04:04:48;101969.19;;;4.44;64.56
84967;BME280;75275;51.348;12.358;2024-01-27T04:07:15;101963.38;;;4.47;64.34
84967;BME280;75275;51.348;12.358;2024-01-27T04:09:44;101969.81;;;4.46;64.30
84967;BME280;75275;51.348;12.358;2024-01-27T04:12:11;101985.84;;;4.41;64.35
84967;BME280;75275;51.348;12.358;2024-01-27T04:14:38;101980.69;;;4.46;64.29
84967;BME280;75275;51.348;12.358;2024-01-27T04:17:05;101986.38;;;4.51;64.57
84967;BME280;75275;51.348;12.358;2024-01-27T04:19:32;101988.72;;;4.54;64.17
84967;BME280;75275;51.348;12.358;2024-01-27T04:21:59;101990.41;;;4.55;64.59
84967;BME280;75275;51.348;12.358;2024-01-27T04:24:26;101979.16;;;4.58;64.24
84967;BME280;75275;51.348;12.358;2024-01-27T04:26:54;101975.78;;;4.56;64.21
84967;BME280;75275;51.348;12.358;2024-01-27T04:29:22;101975.97;;;4.54;64.20
84967;BME280;75275;51.348;12.358;2024-01-27T04:31:49;101972.47;;;4.61;64.47
84967;BME280;75275;51.348;12.358;2024-01-27T04:34:16;101974.22;;;4.68;63.84
84967;BME280;75275;51.348;12.358;2024-01-27T04:36:44;101975.47;;;4.66;64.36
84967;BME280;75275;51.348;12.358;2024-01-27T04:39:11;101973.97;;;4.63;64.09
84967;BME280;75275;51.348;12.358;2024-01-27T04:41:41;101980.91;;;4.66;64.29
84967;BME280;75275;51.348;12.358;2024-01-27T04:44:11;101977.53;;;4.64;64.47
84967;BME280;75275;51.348;12.358;2024-01-27T04:46:38;101976.63;;;4.56;64.53
84967;BME280;75275;51.348;12.358;2024-01-27T04:49:04;101969.31;;;4.57;65.11
84967;BME280;75275;51.348;12.358;2024-01-27T04:51:34;101979.31;;;4.56;64.72
84967;BME280;75275;51.348;12.358;2024-01-27T04:54:05;101975.41;;;4.59;64.78
84967;BME280;75275;51.348;12.358;2024-01-27T04:56:32;101987.75;;;4.62;65.14
84967;BME280;75275;51.348;12.358;2024-01-27T04:58:59;101978.56;;;4.63;64.68
84967;BME280;75275;51.348;12.358;2024-01-27T05:01:28;101986.25;;;4.59;65.14
84967;BME280;75275;51.348;12.358;2024-01-27T05:03:55;101982.25;;;4.55;65.29
84967;BME280;75275;51.348;12.358;2024-01-27T05:06:22;101982.63;;;4.52;65.24
84967;BME280;75275;51.348;12.358;2024-01-27T05:08:52;101994.53;;;4.51;65.51
84967;BME280;75275;51.348;12.358;2024-01-27T05:11:24;101981.34;;;4.48;65.44
84967;BME280;75275;51.348;12.358;2024-01-27T05:13:51;101988.81;;;4.46;65.65
84967;BME280;75275;51.348;12.358;2024-01-27T05:16:20;101991.16;;;4.49;65.68
84967;BME280;75275;51.348;12.358;2024-01-27T05:18:48;101990.56;;;4.53;65.63
84967;BME280;75275;51.348;12.358;2024-01-27T05:21:15;101992.72;;;4.58;65.52
84967;BME280;75275;51.348;12.358;2024-01-27T05:23:42;101989.44;;;4.63;65.33
84967;BME280;75275;51.348;12.358;2024-01-27T05:26:09;101984.91;;;4.70;65.35
84967;BME280;75275;51.348;12.358;2024-01-27T05:28:36;101992.91;;;4.78;64.79
84967;BME280;75275;51.348;12.358;2024-01-27T05:31:03;101999.06;;;4.87;64.57
84967;BME280;75275;51.348;12.358;2024-01-27T05:33:33;101994.72;;;4.92;64.43
84967;BME280;75275;51.348;12.358;2024-01-27T05:36:01;101996.84;;;4.97;64.19
84967;BME280;75275;51.348;12.358;2024-01-27T05:38:28;102008.00;;;5.02;64.10
84967;BME280;75275;51.348;12.358;2024-01-27T05:40:58;101997.97;;;5.02;64.06
84967;BME280;75275;51.348;12.358;2024-01-27T05:43:27;102003.84;;;5.06;63.86
84967;BME280;75275;51.348;12.358;2024-01-27T05:45:54;102007.47;;;5.13;63.85
84967;BME280;75275;51.348;12.358;2024-01-27T05:48:21;102006.41;;;5.14;63.95
84967;BME280;75275;51.348;12.358;2024-01-27T05:50:55;101998.03;;;5.09;63.80
84967;BME280;75275;51.348;12.358;2024-01-27T05:53:25;101997.63;;;5.12;64.02
84967;BME280;75275;51.348;12.358;2024-01-27T05:55:53;102003.91;;;5.13;64.01
84967;BME280;75275;51.348;12.358;2024-01-27T05:58:20;102009.13;;;5.14;64.30
84967;BME280;75275;51.348;12.358;2024-01-27T06:00:47;102011.47;;;5.17;64.19
84967;BME280;75275;51.348;12.358;2024-01-27T06:03:14;102018.13;;;5.15;63.93
84967;BME280;75275;51.348;12.358;2024-01-27T06:05:42;102014.38;;;5.16;64.21
84967;BME280;75275;51.348;12.358;2024-01-27T06:08:09;102025.72;;;5.19;63.48
84967;BME280;75275;51.348;12.358;2024-01-27T06:10:37;102021.28;;;5.18;63.64
84967;BME280;75275;51.348;12.358;2024-01-27T06:13:04;102025.25;;;5.16;63.71
84967;BME280;75275;51.348;12.358;2024-01-27T06:15:32;102031.53;;;5.16;63.90
84967;BME280;75275;51.348;12.358;2024-01-27T06:17:59;102032.97;;;5.12;64.42
84967;BME280;75275;51.348;12.358;2024-01-27T06:20:26;102034.03;;;5.18;64.13
84967;BME280;75275;51.348;12.358;2024-01-27T06:22:52;102040.91;;;5.14;63.78
84967;BME280;75275;51.348;12.358;2024-01-27T06:25:20;102054.69;;;5.12;63.58
84967;BME280;75275;51.348;12.358;2024-01-27T06:27:48;102056.38;;;5.13;63.96
84967;BME280;75275;51.348;12.358;2024-01-27T06:30:15;102059.09;;;5.13;64.02
84967;BME280;75275;51.348;12.358;2024-01-27T06:32:43;102060.31;;;5.11;63.83
84967;BME280;75275;51.348;12.358;2024-01-27T06:35:15;102063.03;;;5.11;64.19
84967;BME280;75275;51.348;12.358;2024-01-27T06:37:42;102062.59;;;5.07;64.21
84967;BME280;75275;51.348;12.358;2024-01-27T06:40:09;102065.06;;;5.02;64.39
84967;BME280;75275;51.348;12.358;2024-01-27T06:42:36;102071.47;;;4.94;64.52
84967;BME280;75275;51.348;12.358;2024-01-27T06:45:06;102066.34;;;4.85;64.96
84967;BME280;75275;51.348;12.358;2024-01-27T06:47:34;102074.88;;;4.81;65.23
84967;BME280;75275;51.348;12.358;2024-01-27T06:50:01;102065.66;;;4.82;64.69
84967;BME280;75275;51.348;12.358;2024-01-27T06:52:28;102066.72;;;4.81;65.16
84967;BME280;75275;51.348;12.358;2024-01-27T06:54:55;102067.28;;;4.77;65.62
84967;BME280;75275;51.348;12.358;2024-01-27T06:57:23;102067.94;;;4.79;65.46
84967;BME280;75275;51.348;12.358;2024-01-27T06:59:51;102070.19;;;4.75;65.08
84967;BME280;75275;51.348;12.358;2024-01-27T07:02:22;102087.53;;;4.74;65.49
84967;BME280;75275;51.348;12.358;2024-01-27T07:04:49;102086.94;;;4.79;65.65
84967;BME280;75275;51.348;12.358;2024-01-27T07:07:16;102088.91;;;4.85;65.11
84967;BME280;75275;51.348;12.358;2024-01-27T07:09:43;102090.94;;;4.98;64.90
84967;BME280;75275;51.348;12.358;2024-01-27T07:12:12;102097.00;;;5.00;64.17
84967;BME280;75275;51.348;12.358;2024-01-27T07:14:39;102096.25;;;5.06;64.70
84967;BME280;75275;51.348;12.358;2024-01-27T07:17:08;102093.69;;;5.04;64.17
84967;BME280;75275;51.348;12.358;2024-01-27T07:19:38;102102.72;;;5.05;64.45
84967;BME280;75275;51.348;12.358;2024-01-27T07:22:05;102095.84;;;5.09;63.96
84967;BME280;75275;51.348;12.358;2024-01-27T07:24:32;102098.81;;;5.14;63.86
84967;BME280;75275;51.348;12.358;2024-01-27T07:27:00;102097.22;;;5.20;63.99
84967;BME280;75275;51.348;12.358;2024-01-27T07:29:33;102105.81;;;5.23;63.90
84967;BME280;75275;51.348;12.358;2024-01-27T07:32:00;102109.44;;;5.30;63.98
84967;BME280;75275;51.348;12.358;2024-01-27T07:34:26;102109.03;;;5.34;63.24
84967;BME280;75275;51.348;12.358;2024-01-27T07:36:55;102116.41;;;5.40;63.68
84967;BME280;75275;51.348;12.358;2024-01-27T07:39:22;102125.03;;;5.43;63.03
84967;BME280;75275;51.348;12.358;2024-01-27T07:41:49;102123.16;;;5.44;63.06
84967;BME280;75275;51.348;12.358;2024-01-27T07:44:18;102124.31;;;5.56;62.66
84967;BME280;75275;51.348;12.358;2024-01-27T07:46:45;102136.94;;;5.64;62.60
84967;BME280;75275;51.348;12.358;2024-01-27T07:49:12;102131.13;;;5.73;62.05
84967;BME280;75275;51.348;12.358;2024-01-27T07:51:40;102138.91;;;5.76;62.35
84967;BME280;75275;51.348;12.358;2024-01-27T07:54:08;102136.84;;;5.78;62.07
84967;BME280;75275;51.348;12.358;2024-01-27T07:56:37;102136.25;;;5.83;62.08
84967;BME280;75275;51.348;12.358;2024-01-27T07:59:04;102134.63;;;5.89;61.55
84967;BME280;75275;51.348;12.358;2024-01-27T08:01:31;102143.91;;;5.94;61.55
84967;BME280;75275;51.348;12.358;2024-01-27T08:04:01;102138.06;;;5.97;61.56
84967;BME280;75275;51.348;12.358;2024-01-27T08:06:29;102144.34;;;5.98;61.35
84967;BME280;75275;51.348;12.358;2024-01-27T08:08:56;102150.06;;;6.03;61.16
84967;BME280;75275;51.348;12.358;2024-01-27T08:11:29;102145.84;;;6.00;60.82
84967;BME280;75275;51.348;12.358;2024-01-27T08:13:56;102147.19;;;5.90;61.08
84967;BME280;75275;51.348;12.358;2024-01-27T08:16:23;102150.06;;;5.82;61.99
84967;BME280;75275;51.348;12.358;2024-01-27T08:18:50;102152.13;;;5.79;61.64
84967;BME280;75275;51.348;12.358;2024-01-27T08:21:17;102146.22;;;5.76;62.30
84967;BME280;75275;51.348;12.358;2024-01-27T08:23:44;102150.38;;;5.72;62.28
84967;BME280;75275;51.348;12.358;2024-01-27T08:26:11;102144.88;;;5.65;62.89
84967;BME280;75275;51.348;12.358;2024-01-27T08:28:39;102150.72;;;5.62;62.56
84967;BME280;75275;51.348;12.358;2024-01-27T08:31:06;102153.44;;;5.62;63.38
84967;BME280;75275;51.348;12.358;2024-01-27T08:33:33;102162.25;;;5.64;62.92
84967;BME280;75275;51.348;12.358;2024-01-27T08:35:59;102164.75;;;5.66;62.40
84967;BME280;75275;51.348;12.358;2024-01-27T08:38:27;102165.59;;;5.66;62.57
84967;BME280;75275;51.348;12.358;2024-01-27T08:40:54;102159.78;;;5.69;62.88
84967;BME280;75275;51.348;12.358;2024-01-27T08:43:21;102162.31;;;5.71;62.95
84967;BME280;75275;51.348;12.358;2024-01-27T08:45:49;102173.25;;;5.77;62.70
84967;BME280;75275;51.348;12.358;2024-01-27T08:48:16;102168.22;;;5.74;62.52
84967;BME280;75275;51.348;12.358;2024-01-27T08:50:43;102173.81;;;5.73;62.99
84967;BME280;75275;51.348;12.358;2024-01-27T08:53:10;102173.25;;;5.77;62.42
84967;BME280;75275;51.348;12.358;2024-01-27T08:55:37;102180.63;;;5.84;63.02
84967;BME280;75275;51.348;12.358;2024-01-27T08:58:04;102176.88;;;5.85;62.49
84967;BME280;75275;51.348;12.358;2024-01-27T09:00:34;102189.69;;;5.91;62.68
84967;BME280;75275;51.348;12.358;2024-01-27T09:03:03;102199.16;;;5.95;62.59
84967;BME280;75275;51.348;12.358;2024-01-27T09:05:32;102192.94;;;6.01;62.78
84967;BME280;75275;51.348;12.358;2024-01-27T09:07:59;102193.34;;;5.98;62.39
84967;BME280;75275;51.348;12.358;2024-01-27T09:10:26;102189.78;;;5.97;62.53
84967;BME280;75275;51.348;12.358;2024-01-27T09:12:54;102190.47;;;6.06;61.86
84967;BME280;75275;51.348;12.358;2024-01-27T09:15:21;102201.34;;;6.06;62.42
84967;BME280;75275;51.348;12.358;2024-01-27T09:17:48;102192.34;;;6.06;61.82
84967;BME280;75275;51.348;12.358;2024-01-27T09:20:16;102197.69;;;6.20;62.18
84967;BME280;75275;51.348;12.358;2024-01-27T09:22:43;102203.56;;;6.24;61.75
84967;BME280;75275;51.348;12.358;2024-01-27T09:25:13;102208.84;;;6.25;61.42
84967;BME280;75275;51.348;12.358;2024-01-27T09:27:40;102206.75;;;6.27;61.34
84967;BME280;75275;51.348;12.358;2024-01-27T09:30:07;102213.72;;;6.37;60.91
84967;BME280;75275;51.348;12.358;2024-01-27T09:32:34;102212.22;;;6.62;60.54
84967;BME280;75275;51.348;12.358;2024-01-27T09:35:00;102208.63;;;7.03;58.43
84967;BME280;75275;51.348;12.358;2024-01-27T09:37:32;102220.53;;;7.50;58.01
84967;BME280;75275;51.348;12.358;2024-01-27T09:39:59;102211.53;;;8.62;54.07
84967;BME280;75275;51.348;12.358;2024-01-27T09:42:28;102207.50;;;9.30;51.65
84967;BME280;75275;51.348;12.358;2024-01-27T09:44:56;102196.59;;;10.92;47.56
84967;BME280;75275;51.348;12.358;2024-01-27T09:47:25;102181.97;;;12.35;43.33
84967;BME280;75275;51.348;12.358;2024-01-27T09:49:52;102190.09;;;13.06;41.63
84967;BME280;75275;51.348;12.358;2024-01-27T09:52:19;102189.34;;;13.10;41.13
84967;BME280;75275;51.348;12.358;2024-01-27T09:54:47;102194.50;;;12.66;41.07
84967;BME280;75275;51.348;12.358;2024-01-27T09:57:15;102197.47;;;11.52;44.92
84967;BME280;75275;51.348;12.358;2024-01-27T09:59:44;102192.78;;;11.11;46.07
84967;BME280;75275;51.348;12.358;2024-01-27T10:02:13;102200.28;;;11.76;44.41
84967;BME280;75275;51.348;12.358;2024-01-27T10:04:43;102187.72;;;11.68;43.92
84967;BME280;75275;51.348;12.358;2024-01-27T10:07:10;102192.94;;;10.18;47.95
84967;BME280;75275;51.348;12.358;2024-01-27T10:09:37;102210.72;;;9.13;50.65
84967;BME280;75275;51.348;12.358;2024-01-27T10:12:09;102205.41;;;8.60;53.38
84967;BME280;75275;51.348;12.358;2024-01-27T10:14:39;102209.66;;;8.16;54.09
84967;BME280;75275;51.348;12.358;2024-01-27T10:17:09;102214.72;;;7.93;55.47
84967;BME280;75275;51.348;12.358;2024-01-27T10:19:40;102218.72;;;7.77;55.82
84967;BME280;75275;51.348;12.358;2024-01-27T10:22:07;102212.97;;;7.59;56.92
84967;BME280;75275;51.348;12.358;2024-01-27T10:24:34;102220.97;;;7.54;56.47
84967;BME280;75275;51.348;12.358;2024-01-27T10:27:02;102220.31;;;7.38;56.84
84967;BME280;75275;51.348;12.358;2024-01-27T10:29:31;102222.59;;;7.35;57.74
84967;BME280;75275;51.348;12.358;2024-01-27T10:32:07;102216.28;;;7.28;57.36
84967;BME280;75275;51.348;12.358;2024-01-27T10:34:34;102225.91;;;7.17;57.73
84967;BME280;75275;51.348;12.358;2024-01-27T10:37:01;102224.25;;;7.29;58.58
84967;BME280;75275;51.348;12.358;2024-01-27T10:39:28;102224.28;;;7.36;57.81
84967;BME280;75275;51.348;12.358;2024-01-27T10:41:55;102227.66;;;7.38;58.09
84967;BME280;75275;51.348;12.358;2024-01-27T10:44:22;102220.69;;;7.29;58.65
84967;BME280;75275;51.348;12.358;2024-01-27T10:46:50;102214.59;;;7.27;58.77
84967;BME280;75275;51.348;12.358;2024-01-27T10:49:18;102227.41;;;7.33;58.25
84967;BME280;75275;51.348;12.358;2024-01-27T10:51:53;102220.94;;;7.34;58.42
84967;BME280;75275;51.348;12.358;2024-01-27T10:54:23;102226.38;;;7.34;58.17
84967;BME280;75275;51.348;12.358;2024-01-27T10:56:55;102223.03;;;7.38;58.31
84967;BME280;75275;51.348;12.358;2024-01-27T10:59:22;102227.03;;;7.49;57.88
84967;BME280;75275;51.348;12.358;2024-01-27T11:01:51;102221.38;;;7.51;58.08
84967;BME280;75275;51.348;12.358;2024-01-27T11:04:19;102221.38;;;7.57;58.08
84967;BME280;75275;51.348;12.358;2024-01-27T11:06:48;102231.88;;;7.54;57.61
84967;BME280;75275;51.348;12.358;2024-01-27T11:09:15;102230.22;;;7.59;57.79
84967;BME280;75275;51.348;12.358;2024-01-27T11:11:43;102229.78;;;7.62;57.18
84967;BME280;75275;51.348;12.358;2024-01-27T11:14:11;102231.91;;;7.60;57.15
84967;BME280;75275;51.348;12.358;2024-01-27T11:16:38;102236.94;;;7.63;57.26
84967;BME280;75275;51.348;12.358;2024-01-27T11:19:11;102236.53;;;7.66;56.91
84967;BME280;75275;51.348;12.358;2024-01-27T11:21:39;102229.38;;;7.72;56.42
84967;BME280;75275;51.348;12.358;2024-01-27T11:24:15;102225.19;;;7.76;57.44
84967;BME280;75275;51.348;12.358;2024-01-27T11:26:45;102224.16;;;7.84;56.97
84967;BME280;75275;51.348;12.358;2024-01-27T11:29:12;102234.03;;;7.91;56.70
84967;BME280;75275;51.348;12.358;2024-01-27T11:31:45;102219.75;;;7.89;55.79
84967;BME280;75275;51.348;12.358;2024-01-27T11:34:13;102220.59;;;7.83;56.35
84967;BME280;75275;51.348;12.358;2024-01-27T11:36:43;102225.19;;;7.76;55.97
84967;BME280;75275;51.348;12.358;2024-01-27T11:39:23;102230.63;;;7.69;55.46
84967;BME280;75275;51.348;12.358;2024-01-27T11:41:51;102236.34;;;7.75;55.77
84967;BME280;75275;51.348;12.358;2024-01-27T11:44:18;102239.03;;;7.68;55.54
84967;BME280;75275;51.348;12.358;2024-01-27T11:46:45;102240.91;;;7.61;55.94
84967;BME280;75275;51.348;12.358;2024-01-27T11:49:16;102234.22;;;7.63;56.00
84967;BME280;75275;51.348;12.358;2024-01-27T11:51:43;102233.38;;;7.76;55.34
84967;BME280;75275;51.348;12.358;2024-01-27T11:54:13;102238.84;;;7.83;55.78
84967;BME280;75275;51.348;12.358;2024-01-27T11:56:42;102240.94;;;7.87;55.27
84967;BME280;75275;51.348;12.358;2024-01-27T11:59:10;102244.94;;;7.91;55.46
84967;BME280;75275;51.348;12.358;2024-01-27T12:01:37;102252.31;;;7.84;54.40
84967;BME280;75275;51.348;12.358;2024-01-27T12:04:04;102252.72;;;7.81;54.59
84967;BME280;75275;51.348;12.358;2024-01-27T12:06:32;102248.72;;;7.84;54.98
84967;BME280;75275;51.348;12.358;2024-01-27T12:09:00;102249.97;;;7.88;54.38
84967;BME280;75275;51.348;12.358;2024-01-27T12:11:27;102251.69;;;7.95;54.48
84967;BME280;75275;51.348;12.358;2024-01-27T12:13:56;102249.38;;;8.06;54.60
84967;BME280;75275;51.348;12.358;2024-01-27T12:16:23;102243.50;;;8.09;53.94
84967;BME280;75275;51.348;12.358;2024-01-27T12:18:51;102245.19;;;8.10;54.21
84967;BME280;75275;51.348;12.358;2024-01-27T12:21:19;102243.91;;;8.12;53.74
84967;BME280;75275;51.348;12.358;2024-01-27T12:23:51;102243.28;;;8.10;53.62
84967;BME280;75275;51.348;12.358;2024-01-27T12:26:20;102244.78;;;8.06;53.13
84967;BME280;75275;51.348;12.358;2024-01-27T12:28:47;102239.31;;;8.06;53.50
84967;BME280;75275;51.348;12.358;2024-01-27T12:31:15;102240.56;;;8.10;54.09
84967;BME280;75275;51.348;12.358;2024-01-27T12:33:50;102247.47;;;8.13;54.68
84967;BME280;75275;51.348;12.358;2024-01-27T12:36:18;102235.31;;;8.15;53.04
84967;BME280;75275;51.348;12.358;2024-01-27T12:38:58;102244.34;;;8.23;53.21
84967;BME280;75275;51.348;12.358;2024-01-27T12:41:25;102239.28;;;8.19;53.16
84967;BME280;75275;51.348;12.358;2024-01-27T12:43:52;102239.69;;;8.16;53.72
84967;BME280;75275;51.348;12.358;2024-01-27T12:46:19;102244.13;;;8.17;54.16
84967;BME280;75275;51.348;12.358;2024-01-27T12:48:46;102241.00;;;8.14;53.75
84967;BME280;75275;51.348;12.358;2024-01-27T12:51:13;102247.28;;;8.14;53.51
84967;BME280;75275;51.348;12.358;2024-01-27T12:53:41;102247.69;;;8.11;54.15
84967;BME280;75275;51.348;12.358;2024-01-27T12:56:13;102252.09;;;8.12;53.27